Time;durP1;ratioP1;P1;durP2;ratioP2;P2;SDS_P1;SDS_P2;PMS_P1;PMS_P2;Temp;Humidity;BMP_temperature;BMP_pressure;BME280_temperature;BME280_humidity;BME280_pressure;Samples;Min_cycle;Max_cycle;Signal;HPM_P1;HPM_P2
2021/12/03 00:02:02;;;;;;;22.98;12.25;;;;;;;;;;5029826;28;20570;-75
2021/12/03 00:04:27;;;;;;;25.17;13.75;;;;;;;;;;5023798;28;20040;-78
2021/12/03 00:06:52;;;;;;;24.27;13.10;;;;;;;;;;5026456;28;20464;-77
2021/12/03 00:09:18;;;;;;;21.30;11.75;;;;;;;;;;5026399;28;20044;-78
2021/12/03 00:11:43;;;;;;;23.77;12.73;;;;;;;;;;5030144;28;20452;-77
2021/12/03 00:14:08;;;;;;;25.40;13.27;;;;;;;;;;5025781;28;20029;-77
2021/12/03 00:16:33;;;;;;;23.42;12.10;;;;;;;;;;5030480;28;20029;-77
2021/12/03 00:18:58;;;;;;;25.45;12.60;;;;;;;;;;5029595;28;20046;-77
2021/12/03 00:21:26;;;;;;;21.88;12.18;;;;;;;;;;5035264;28;20419;-76
2021/12/03 00:23:51;;;;;;;25.90;12.82;;;;;;;;;;5024957;28;20026;-76
2021/12/03 00:26:16;;;;;;;20.77;11.98;;;;;;;;;;5022319;28;20385;-77
2021/12/03 00:28:41;;;;;;;23.48;12.05;;;;;;;;;;5028625;28;20079;-77
2021/12/03 00:31:07;;;;;;;23.52;12.80;;;;;;;;;;5018520;28;20022;-77
2021/12/03 00:33:32;;;;;;;24.55;13.05;;;;;;;;;;5029124;28;20032;-77
2021/12/03 00:36:03;;;;;;;22.93;13.00;;;;;;;;;;5030607;28;20067;-75
2021/12/03 00:38:30;;;;;;;23.97;12.90;;;;;;;;;;5036700;28;20322;-77
2021/12/03 00:40:55;;;;;;;23.02;11.95;;;;;;;;;;5027545;28;20025;-78
2021/12/03 00:43:20;;;;;;;25.35;13.05;;;;;;;;;;5036587;28;20022;-79
2021/12/03 00:45:46;;;;;;;24.73;13.60;;;;;;;;;;5027748;28;20017;-78
2021/12/03 00:48:11;;;;;;;25.63;12.80;;;;;;;;;;5018737;28;20033;-77
2021/12/03 00:50:37;;;;;;;23.43;12.80;;;;;;;;;;5029694;28;20102;-77
2021/12/03 00:53:02;;;;;;;21.02;11.43;;;;;;;;;;5023786;28;20032;-76
2021/12/03 00:55:29;;;;;;;22.58;12.95;;;;;;;;;;5023243;28;20022;-77
2021/12/03 00:57:54;;;;;;;26.55;13.32;;;;;;;;;;5027152;28;20095;-79
2021/12/03 01:00:23;;;;;;;25.70;13.20;;;;;;;;;;5022421;28;20033;-75
2021/12/03 01:02:48;;;;;;;24.83;13.27;;;;;;;;;;5023544;28;20083;-78
2021/12/03 01:05:13;;;;;;;23.13;12.77;;;;;;;;;;5023848;28;20037;-77
2021/12/03 01:07:39;;;;;;;22.13;12.48;;;;;;;;;;5025019;28;20037;-77
2021/12/03 01:10:05;;;;;;;23.52;12.98;;;;;;;;;;5027531;28;20060;-75
2021/12/03 01:12:30;;;;;;;24.45;13.05;;;;;;;;;;5025180;28;20025;-77
2021/12/03 01:14:55;;;;;;;25.75;12.98;;;;;;;;;;5027224;28;20041;-78
2021/12/03 01:17:22;;;;;;;25.73;13.50;;;;;;;;;;5029488;28;20033;-78
2021/12/03 01:19:47;;;;;;;23.80;12.35;;;;;;;;;;5026428;28;20415;-77
2021/12/03 01:22:12;;;;;;;26.35;13.65;;;;;;;;;;5033415;28;20080;-76
2021/12/03 01:24:37;;;;;;;29.45;13.48;;;;;;;;;;5021328;28;20021;-76
2021/12/03 01:27:03;;;;;;;22.17;12.82;;;;;;;;;;5027247;28;20392;-76
2021/12/03 01:29:28;;;;;;;25.88;12.98;;;;;;;;;;5025205;28;20127;-76
2021/12/03 01:31:54;;;;;;;24.58;13.40;;;;;;;;;;5028571;28;20033;-77
2021/12/03 01:34:19;;;;;;;24.63;13.48;;;;;;;;;;5028302;28;20029;-79
2021/12/03 01:36:44;;;;;;;24.73;13.20;;;;;;;;;;5028065;28;20424;-77
2021/12/03 01:39:12;;;;;;;23.90;12.40;;;;;;;;;;5027379;28;20025;-77
2021/12/03 01:41:37;;;;;;;23.90;13.15;;;;;;;;;;5026330;28;20041;-78
2021/12/03 01:44:03;;;;;;;24.63;13.50;;;;;;;;;;5021050;28;20106;-76
2021/12/03 01:46:29;;;;;;;22.55;12.32;;;;;;;;;;5028458;28;20560;-76
2021/12/03 01:48:55;;;;;;;22.52;13.18;;;;;;;;;;5026149;28;20022;-78
2021/12/03 01:51:20;;;;;;;24.75;13.60;;;;;;;;;;5023274;28;20125;-77
2021/12/03 01:53:46;;;;;;;25.85;13.15;;;;;;;;;;5025142;28;20041;-75
2021/12/03 01:56:12;;;;;;;20.75;12.23;;;;;;;;;;5027399;28;20472;-77
2021/12/03 01:58:39;;;;;;;23.88;13.68;;;;;;;;;;5028916;28;20038;-77
2021/12/03 02:01:09;;;;;;;22.35;11.80;;;;;;;;;;5027813;28;20045;-77
2021/12/03 02:03:35;;;;;;;27.23;14.35;;;;;;;;;;5024271;28;20044;-77
2021/12/03 02:06:01;;;;;;;25.08;13.27;;;;;;;;;;5022498;28;20017;-77
2021/12/03 02:08:26;;;;;;;24.33;13.20;;;;;;;;;;5023062;28;20528;-77
2021/12/03 02:10:52;;;;;;;27.25;13.93;;;;;;;;;;5028965;28;20801;-78
2021/12/03 02:13:17;;;;;;;24.23;13.70;;;;;;;;;;5027486;28;20154;-77
2021/12/03 02:15:43;;;;;;;22.98;12.95;;;;;;;;;;5026082;28;20025;-77
2021/12/03 02:18:09;;;;;;;26.17;13.63;;;;;;;;;;5023094;28;20060;-77
2021/12/03 02:20:34;;;;;;;24.90;13.82;;;;;;;;;;5031998;28;20041;-76
2021/12/03 02:23:00;;;;;;;26.65;12.82;;;;;;;;;;5028598;28;20396;-78
2021/12/03 02:25:26;;;;;;;26.55;13.48;;;;;;;;;;5023950;28;20029;-76
2021/12/03 02:27:52;;;;;;;26.63;13.43;;;;;;;;;;5026105;28;20107;-78
2021/12/03 02:30:18;;;;;;;25.55;13.20;;;;;;;;;;5026940;28;20073;-76
2021/12/03 02:32:44;;;;;;;22.88;13.45;;;;;;;;;;5027669;28;20026;-77
2021/12/03 02:35:09;;;;;;;24.02;13.88;;;;;;;;;;5027716;28;20047;-77
2021/12/03 02:37:34;;;;;;;24.10;13.75;;;;;;;;;;5022842;28;20104;-77
2021/12/03 02:40:00;;;;;;;26.88;14.07;;;;;;;;;;5026956;28;20039;-76
2021/12/03 02:42:25;;;;;;;26.23;14.15;;;;;;;;;;5027664;28;20208;-76
2021/12/03 02:44:50;;;;;;;24.60;13.25;;;;;;;;;;5026422;28;20088;-77
2021/12/03 02:47:15;;;;;;;24.17;13.18;;;;;;;;;;5025845;28;20452;-77
2021/12/03 02:49:41;;;;;;;23.45;12.68;;;;;;;;;;5023406;28;20036;-78
2021/12/03 02:52:07;;;;;;;24.70;14.25;;;;;;;;;;5025067;28;20021;-76
2021/12/03 02:54:33;;;;;;;22.33;12.57;;;;;;;;;;5027929;28;20026;-77
2021/12/03 02:56:58;;;;;;;25.05;13.23;;;;;;;;;;5026085;28;20477;-76
2021/12/03 02:59:23;;;;;;;23.95;13.00;;;;;;;;;;5021938;28;20042;-77
2021/12/03 03:01:48;;;;;;;23.13;12.93;;;;;;;;;;5021451;28;20038;-76
2021/12/03 03:04:13;;;;;;;21.73;12.38;;;;;;;;;;5032964;28;20048;-77
2021/12/03 03:06:39;;;;;;;24.42;12.48;;;;;;;;;;5031931;28;20033;-76
2021/12/03 03:09:08;;;;;;;22.08;12.40;;;;;;;;;;5029403;28;20048;-76
2021/12/03 03:11:34;;;;;;;22.70;12.82;;;;;;;;;;5031342;28;20021;-77
2021/12/03 03:13:59;;;;;;;22.02;11.77;;;;;;;;;;5031271;28;20102;-77
2021/12/03 03:16:24;;;;;;;21.63;11.35;;;;;;;;;;5032403;28;20018;-76
2021/12/03 03:18:49;;;;;;;22.42;11.55;;;;;;;;;;5028648;28;20028;-76
2021/12/03 03:21:15;;;;;;;22.80;11.70;;;;;;;;;;5032828;28;20021;-79
2021/12/03 03:23:40;;;;;;;18.23;10.77;;;;;;;;;;5032259;28;20025;-78
2021/12/03 03:26:05;;;;;;;22.17;11.40;;;;;;;;;;5036952;28;20025;-77
2021/12/03 03:28:31;;;;;;;21.20;11.13;;;;;;;;;;5028395;28;20021;-77
2021/12/03 03:30:57;;;;;;;19.83;11.05;;;;;;;;;;5031331;28;20044;-76
2021/12/03 03:33:22;;;;;;;21.15;11.25;;;;;;;;;;5032079;28;20033;-78
2021/12/03 03:35:48;;;;;;;18.98;11.38;;;;;;;;;;5031641;28;20492;-76
2021/12/03 03:38:14;;;;;;;21.02;11.55;;;;;;;;;;5031753;28;20045;-77
2021/12/03 03:40:43;;;;;;;21.25;10.93;;;;;;;;;;5030299;28;20031;-77
2021/12/03 03:43:08;;;;;;;19.30;11.20;;;;;;;;;;5031488;28;20027;-77
2021/12/03 03:45:34;;;;;;;20.17;11.25;;;;;;;;;;5030604;28;20030;-77
2021/12/03 03:47:59;;;;;;;22.50;11.82;;;;;;;;;;5031462;28;20021;-78
2021/12/03 03:50:25;;;;;;;17.55;10.70;;;;;;;;;;5030025;28;20428;-76
2021/12/03 03:52:51;;;;;;;20.38;10.55;;;;;;;;;;5030335;28;20018;-79
2021/12/03 03:55:17;;;;;;;19.63;10.77;;;;;;;;;;5029110;28;20029;-77
2021/12/03 03:57:42;;;;;;;19.40;10.93;;;;;;;;;;5026837;28;20380;-75
2021/12/03 04:00:09;;;;;;;20.88;10.05;;;;;;;;;;5034516;28;20033;-76
2021/12/03 04:02:34;;;;;;;18.20;10.82;;;;;;;;;;5021056;28;20045;-76
2021/12/03 04:04:59;;;;;;;15.18;8.80;;;;;;;;;;5024058;28;20056;-76
2021/12/03 04:07:24;;;;;;;19.80;10.85;;;;;;;;;;5025359;28;20084;-75
2021/12/03 04:09:50;;;;;;;20.20;10.80;;;;;;;;;;5030583;28;20154;-74
2021/12/03 04:12:15;;;;;;;21.23;10.70;;;;;;;;;;5024879;28;20037;-76
2021/12/03 04:14:40;;;;;;;20.85;11.35;;;;;;;;;;5031140;28;20413;-75
2021/12/03 04:17:05;;;;;;;22.58;11.90;;;;;;;;;;5028711;28;20127;-75
2021/12/03 04:19:31;;;;;;;22.05;11.88;;;;;;;;;;5029889;28;20380;-76
2021/12/03 04:21:56;;;;;;;19.45;11.80;;;;;;;;;;5034189;28;20030;-76
2021/12/03 04:24:22;;;;;;;19.50;11.32;;;;;;;;;;5027346;28;20026;-76
2021/12/03 04:26:47;;;;;;;18.58;11.63;;;;;;;;;;5029381;28;20121;-77
2021/12/03 04:29:12;;;;;;;20.60;11.27;;;;;;;;;;5026035;28;20036;-78
2021/12/03 04:31:37;;;;;;;21.23;12.13;;;;;;;;;;5030925;28;20018;-75
2021/12/03 04:34:03;;;;;;;21.88;11.80;;;;;;;;;;5030472;28;20030;-75
2021/12/03 04:36:28;;;;;;;21.42;11.77;;;;;;;;;;5030821;28;20096;-77
2021/12/03 04:38:53;;;;;;;19.67;11.38;;;;;;;;;;5028668;28;20025;-77
2021/12/03 04:41:19;;;;;;;20.75;12.35;;;;;;;;;;5030726;28;20038;-76
2021/12/03 04:43:44;;;;;;;20.83;11.32;;;;;;;;;;5030795;28;20580;-78
2021/12/03 04:46:09;;;;;;;18.33;9.85;;;;;;;;;;5030718;28;20057;-76
2021/12/03 04:48:35;;;;;;;15.07;9.57;;;;;;;;;;5026608;28;20026;-75
2021/12/03 04:51:00;;;;;;;19.42;10.88;;;;;;;;;;5036455;28;20094;-75
2021/12/03 04:53:25;;;;;;;16.13;9.52;;;;;;;;;;5030876;28;20108;-77
2021/12/03 04:55:51;;;;;;;18.17;9.35;;;;;;;;;;5030313;28;20022;-77
2021/12/03 04:58:17;;;;;;;17.25;9.45;;;;;;;;;;5030796;28;20040;-76
2021/12/03 05:00:45;;;;;;;16.00;9.32;;;;;;;;;;5029734;28;20071;-77
2021/12/03 05:03:10;;;;;;;16.00;9.45;;;;;;;;;;5030267;28;20025;-76
2021/12/03 05:05:37;;;;;;;16.85;9.20;;;;;;;;;;5030792;28;20071;-77
2021/12/03 05:08:07;;;;;;;16.70;8.38;;;;;;;;;;5030399;28;20045;-77
2021/12/03 05:10:33;;;;;;;17.73;10.32;;;;;;;;;;5028483;28;20036;-76
2021/12/03 05:13:00;;;;;;;17.50;9.18;;;;;;;;;;5030018;28;20021;-76
2021/12/03 05:15:25;;;;;;;15.30;9.60;;;;;;;;;;5030288;28;20397;-79
2021/12/03 05:17:51;;;;;;;17.33;9.40;;;;;;;;;;5029481;28;20014;-77
2021/12/03 05:20:16;;;;;;;19.20;9.90;;;;;;;;;;5030560;28;20037;-77
2021/12/03 05:22:41;;;;;;;14.93;9.00;;;;;;;;;;5031831;28;20051;-75
2021/12/03 05:25:07;;;;;;;16.00;9.40;;;;;;;;;;5029744;28;20117;-76
2021/12/03 05:27:32;;;;;;;15.93;9.60;;;;;;;;;;5030218;28;20083;-77
2021/12/03 05:29:57;;;;;;;19.67;10.27;;;;;;;;;;5025858;28;20029;-76
2021/12/03 05:32:22;;;;;;;14.82;8.75;;;;;;;;;;5029714;28;20086;-76
2021/12/03 05:34:47;;;;;;;16.10;9.40;;;;;;;;;;5029843;28;20116;-77
2021/12/03 05:37:12;;;;;;;16.15;9.07;;;;;;;;;;5030584;28;20030;-76
2021/12/03 05:39:38;;;;;;;17.70;9.65;;;;;;;;;;5024568;28;20033;-76
2021/12/03 05:42:04;;;;;;;17.50;10.35;;;;;;;;;;5023287;28;20595;-79
2021/12/03 05:44:30;;;;;;;17.90;9.98;;;;;;;;;;5031453;28;20075;-77
2021/12/03 05:46:56;;;;;;;16.70;9.65;;;;;;;;;;5030455;28;20363;-76
2021/12/03 05:49:21;;;;;;;18.98;9.95;;;;;;;;;;5027281;28;20026;-76
2021/12/03 05:51:46;;;;;;;17.60;10.15;;;;;;;;;;5031367;28;20334;-77
2021/12/03 05:54:11;;;;;;;20.08;10.52;;;;;;;;;;5026251;28;20472;-76
2021/12/03 05:56:37;;;;;;;16.55;9.30;;;;;;;;;;5035888;28;20067;-76
2021/12/03 05:59:02;;;;;;;18.33;10.35;;;;;;;;;;5022551;28;20393;-77
2021/12/03 06:01:28;;;;;;;19.38;10.80;;;;;;;;;;5027874;28;20049;-77
2021/12/03 06:03:53;;;;;;;16.38;10.48;;;;;;;;;;5026947;28;20485;-77
2021/12/03 06:06:18;;;;;;;19.38;11.35;;;;;;;;;;5028244;28;20477;-76
2021/12/03 06:08:43;;;;;;;19.75;10.88;;;;;;;;;;5031122;28;20021;-78
2021/12/03 06:11:09;;;;;;;20.15;11.25;;;;;;;;;;5032445;28;20018;-79
2021/12/03 06:13:39;;;;;;;20.03;11.47;;;;;;;;;;5027204;28;20427;-79
2021/12/03 06:16:04;;;;;;;19.20;11.25;;;;;;;;;;5028666;28;20413;-76
2021/12/03 06:18:30;;;;;;;20.02;11.13;;;;;;;;;;5026679;28;20112;-79
2021/12/03 06:20:55;;;;;;;18.38;11.30;;;;;;;;;;5031383;28;20473;-80
2021/12/03 06:23:20;;;;;;;20.63;12.10;;;;;;;;;;5023225;28;20021;-81
2021/12/03 06:25:46;;;;;;;19.80;10.90;;;;;;;;;;5018689;28;20025;-77
2021/12/03 06:28:11;;;;;;;19.85;11.85;;;;;;;;;;5028324;28;20033;-79
2021/12/03 06:30:36;;;;;;;20.05;10.80;;;;;;;;;;5024060;28;20520;-78
2021/12/03 06:33:03;;;;;;;19.80;11.02;;;;;;;;;;5025530;28;20025;-70
2021/12/03 06:35:28;;;;;;;22.35;11.88;;;;;;;;;;5020813;28;20060;-70
2021/12/03 06:37:53;;;;;;;20.73;12.27;;;;;;;;;;5027310;28;20060;-70
2021/12/03 06:40:22;;;;;;;21.65;11.02;;;;;;;;;;5027798;28;20018;-69
2021/12/03 06:42:47;;;;;;;22.63;12.43;;;;;;;;;;5018367;28;20098;-70
2021/12/03 06:45:13;;;;;;;19.27;11.85;;;;;;;;;;5024034;28;20105;-69
2021/12/03 06:47:38;;;;;;;23.05;13.60;;;;;;;;;;5023361;28;20017;-68
2021/12/03 06:50:05;;;;;;;21.05;11.80;;;;;;;;;;5028621;28;20018;-68
2021/12/03 06:52:31;;;;;;;21.65;13.10;;;;;;;;;;5035248;28;20147;-69
2021/12/03 06:55:01;;;;;;;20.38;11.48;;;;;;;;;;5027784;28;20022;-69
2021/12/03 06:57:26;;;;;;;20.17;11.63;;;;;;;;;;5023586;28;20021;-70
2021/12/03 06:59:52;;;;;;;21.63;11.68;;;;;;;;;;5028436;28;20091;-70
2021/12/03 07:02:17;;;;;;;18.15;10.90;;;;;;;;;;5028802;28;20113;-70
2021/12/03 07:04:44;;;;;;;20.17;11.80;;;;;;;;;;5028284;28;20025;-70
2021/12/03 07:07:09;;;;;;;18.48;10.93;;;;;;;;;;5027246;28;20144;-69
2021/12/03 07:09:34;;;;;;;20.30;11.30;;;;;;;;;;5027531;28;20100;-71
2021/12/03 07:11:59;;;;;;;19.70;11.15;;;;;;;;;;5026492;28;20044;-73
2021/12/03 07:14:24;;;;;;;19.20;11.07;;;;;;;;;;5028509;28;20040;-73
2021/12/03 07:16:50;;;;;;;21.83;12.60;;;;;;;;;;5022572;28;20834;-70
2021/12/03 07:19:15;;;;;;;22.77;11.88;;;;;;;;;;5020071;28;20041;-71
2021/12/03 07:21:40;;;;;;;24.67;12.98;;;;;;;;;;5032277;28;20189;-71
2021/12/03 07:24:06;;;;;;;20.48;11.85;;;;;;;;;;5028077;28;20040;-71
2021/12/03 07:26:31;;;;;;;23.05;12.82;;;;;;;;;;5027892;28;20095;-72
2021/12/03 07:28:56;;;;;;;22.23;13.25;;;;;;;;;;5024012;28;20416;-72
2021/12/03 07:31:21;;;;;;;25.75;13.13;;;;;;;;;;5024261;28;20044;-72
2021/12/03 07:33:47;;;;;;;24.48;13.05;;;;;;;;;;5021421;28;20033;-72
2021/12/03 07:36:12;;;;;;;24.77;12.93;;;;;;;;;;5027968;28;20025;-71
2021/12/03 07:38:38;;;;;;;21.55;12.60;;;;;;;;;;5027248;28;20041;-72
2021/12/03 07:41:04;;;;;;;23.55;14.02;;;;;;;;;;5029735;28;20022;-71
2021/12/03 07:43:29;;;;;;;23.63;12.60;;;;;;;;;;5031679;28;20434;-72
2021/12/03 07:45:54;;;;;;;25.95;13.10;;;;;;;;;;5031340;28;20032;-73
2021/12/03 07:48:21;;;;;;;25.33;13.68;;;;;;;;;;5031544;28;20488;-71
2021/12/03 07:50:47;;;;;;;24.48;13.00;;;;;;;;;;5029906;28;20152;-72
2021/12/03 07:53:14;;;;;;;21.92;13.30;;;;;;;;;;5031625;28;20457;-72
2021/12/03 07:55:39;;;;;;;26.52;13.93;;;;;;;;;;5031574;28;20124;-71
2021/12/03 07:58:05;;;;;;;26.02;12.73;;;;;;;;;;5031415;28;20545;-71
2021/12/03 08:00:30;;;;;;;16.20;10.00;;;;;;;;;;5029790;28;20037;-71
2021/12/03 08:02:55;;;;;;;18.20;10.18;;;;;;;;;;5030520;28;20043;-72
2021/12/03 08:05:21;;;;;;;19.50;10.50;;;;;;;;;;5031501;28;20021;-71
2021/12/03 08:07:47;;;;;;;15.32;9.43;;;;;;;;;;5030799;28;20073;-71
2021/12/03 08:10:13;;;;;;;17.00;10.07;;;;;;;;;;5028932;28;20100;-71
2021/12/03 08:12:39;;;;;;;16.88;9.68;;;;;;;;;;5031432;28;20068;-71
2021/12/03 08:15:05;;;;;;;15.95;9.43;;;;;;;;;;5031018;28;20417;-72
2021/12/03 08:17:30;;;;;;;15.55;9.32;;;;;;;;;;5030776;28;20048;-72
2021/12/03 08:19:56;;;;;;;15.90;9.63;;;;;;;;;;5030797;28;20384;-71
2021/12/03 08:22:21;;;;;;;16.17;10.10;;;;;;;;;;5023994;28;20025;-73
2021/12/03 08:24:46;;;;;;;15.80;9.15;;;;;;;;;;5030423;28;20040;-72
2021/12/03 08:27:11;;;;;;;16.70;10.27;;;;;;;;;;5030859;28;20017;-72
2021/12/03 08:29:36;;;;;;;18.15;10.45;;;;;;;;;;5029525;28;20026;-72
2021/12/03 08:32:02;;;;;;;18.05;10.23;;;;;;;;;;5029133;28;20049;-71
2021/12/03 08:34:28;;;;;;;19.17;10.77;;;;;;;;;;5030520;28;20043;-71
2021/12/03 08:36:53;;;;;;;18.42;10.45;;;;;;;;;;5030701;28;20096;-72
2021/12/03 08:39:19;;;;;;;17.65;10.38;;;;;;;;;;5030376;28;20082;-72
2021/12/03 08:41:44;;;;;;;17.25;10.77;;;;;;;;;;5029860;28;20358;-73
2021/12/03 08:44:10;;;;;;;17.35;10.45;;;;;;;;;;5030053;28;20025;-73
2021/12/03 08:46:37;;;;;;;16.30;10.02;;;;;;;;;;5029939;28;20044;-71
2021/12/03 08:57:10;;;;;;;16.73;9.65;;;;;;;;;;5007814;28;20049;-71
2021/12/03 08:59:35;;;;;;;17.25;9.93;;;;;;;;;;5007848;28;20041;-72
2021/12/03 09:02:00;;;;;;;15.73;9.75;;;;;;;;;;5007506;28;20064;-71
2021/12/03 09:04:25;;;;;;;16.75;9.82;;;;;;;;;;5004137;28;20462;-71
2021/12/03 09:06:51;;;;;;;16.38;9.65;;;;;;;;;;5003458;28;20149;-72
2021/12/03 09:09:16;;;;;;;16.30;9.93;;;;;;;;;;5007564;28;20057;-71
2021/12/03 09:11:42;;;;;;;15.88;9.85;;;;;;;;;;5007458;28;20068;-71
2021/12/03 09:14:16;;;;;;;18.55;10.43;;;;;;;;;;5007131;28;20024;-72
2021/12/03 09:16:42;;;;;;;19.88;10.45;;;;;;;;;;5001850;28;20049;-72
2021/12/03 09:19:16;;;;;;;17.35;10.52;;;;;;;;;;5007390;28;20033;-72
2021/12/03 09:21:41;;;;;;;16.92;9.35;;;;;;;;;;5012272;28;20053;-71
2021/12/03 09:24:15;;;;;;;18.13;10.20;;;;;;;;;;5007817;28;20470;-73
2021/12/03 09:26:42;;;;;;;15.52;8.60;;;;;;;;;;5005880;28;20062;-71
2021/12/03 09:29:10;;;;;;;14.45;9.65;;;;;;;;;;5020694;28;20045;-72
2021/12/03 09:31:37;;;;;;;15.40;8.88;;;;;;;;;;5029446;28;20029;-72
2021/12/03 09:34:07;;;;;;;13.45;8.70;;;;;;;;;;5030075;28;20017;-71
2021/12/03 09:36:32;;;;;;;;;;;;;;;;;;5026838;28;20032;-71
2021/12/03 09:38:57;;;;;;;13.50;8.16;;;;;;;;;;5029510;28;19922;-71
2021/12/03 09:41:22;;;;;;;14.90;9.23;;;;;;;;;;5029738;28;20022;-72
2021/12/03 09:43:49;;;;;;;10.52;7.35;;;;;;;;;;5029604;28;20037;-72
2021/12/03 09:46:18;;;;;;;12.18;7.28;;;;;;;;;;5026057;28;20018;-71
2021/12/03 09:51:36;;;;;;;13.63;7.70;;;;;;;;;;5028030;28;20033;-71
2021/12/03 09:56:28;;;;;;;9.40;5.90;;;;;;;;;;5025749;28;20083;-72
2021/12/03 10:15:20;;;;;;;10.43;6.10;;;;;;;;;;5021031;28;20029;-73
2021/12/03 10:20:31;;;;;;;9.68;5.85;;;;;;;;;;5023861;28;20040;-72
2021/12/03 10:34:10;;;;;;;8.35;4.88;;;;;;;;;;5028588;28;20060;-72
2021/12/03 11:07:26;;;;;;;6.05;3.13;;;;;;;;;;5028479;28;20107;-71
2021/12/03 11:45:15;;;;;;;5.15;3.42;;;;;;;;;;5030352;28;20160;-72
2021/12/03 12:15:16;;;;;;;6.40;4.50;;;;;;;;;;5027053;28;20549;-72
2021/12/03 13:03:36;;;;;;;6.75;4.05;;;;;;;;;;4930355;29;20188;-72
2021/12/03 13:57:15;;;;;;;5.30;4.00;;;;;;;;;;5018720;28;20157;-66
2021/12/03 14:02:14;;;;;;;6.72;3.78;;;;;;;;;;5027134;28;20033;-65
2021/12/03 14:13:16;;;;;;;5.82;3.72;;;;;;;;;;5027282;28;20581;-66
2021/12/03 14:17:03;;;;;;;6.70;3.60;;;;;;;;;;5021937;28;20044;-67
2021/12/03 14:19:16;;;;;;;5.80;3.28;;;;;;;;;;5018464;28;20040;-68
2021/12/03 14:56:19;;;;;;;6.75;4.18;;;;;;;;;;5032299;28;20036;-67
2021/12/03 14:58:53;;;;;;;7.50;4.50;;;;;;;;;;5028258;28;20041;-68
2021/12/03 15:01:29;;;;;;;8.85;4.97;;;;;;;;;;5031919;28;20062;-67
2021/12/03 15:09:43;;;;;;;8.43;4.72;;;;;;;;;;5024463;28;20048;-67
2021/12/03 15:25:51;;;;;;;8.93;5.05;;;;;;;;;;4969873;28;20105;-67
2021/12/03 15:36:12;;;;;;;7.38;4.97;;;;;;;;;;4931742;29;20475;-67
2021/12/03 16:08:17;;;;;;;11.77;6.82;;;;;;;;;;5007778;28;20111;-67
2021/12/03 16:10:55;;;;;;;10.98;5.85;;;;;;;;;;5024772;28;20029;-66
2021/12/03 16:18:59;;;;;;;10.70;5.80;;;;;;;;;;5008203;28;20041;-67
2021/12/03 16:21:40;;;;;;;10.32;5.45;;;;;;;;;;5007361;28;20038;-66
2021/12/03 16:53:48;;;;;;;7.03;4.60;;;;;;;;;;5023139;28;20038;-66
2021/12/03 16:56:21;;;;;;;9.05;4.70;;;;;;;;;;5025074;28;20385;-67
2021/12/03 16:58:47;;;;;;;9.15;5.30;;;;;;;;;;5025095;28;20143;-66
2021/12/03 17:07:06;;;;;;;9.60;5.18;;;;;;;;;;5029949;28;20488;-66
2021/12/03 17:09:41;;;;;;;12.05;6.60;;;;;;;;;;5030014;28;20080;-65
2021/12/03 17:30:24;;;;;;;14.82;8.05;;;;;;;;;;5029552;28;20037;-67
2021/12/03 17:51:52;;;;;;;12.40;7.32;;;;;;;;;;5029750;28;20084;-66
2021/12/03 17:54:34;;;;;;;12.23;7.78;;;;;;;;;;5028314;28;20068;-67
2021/12/03 17:59:48;;;;;;;13.63;7.88;;;;;;;;;;5024752;28;20560;-66
2021/12/03 18:07:46;;;;;;;13.77;8.15;;;;;;;;;;5016848;28;20052;-74
2021/12/03 18:15:30;;;;;;;15.82;8.18;;;;;;;;;;5026299;28;20083;-75
2021/12/03 18:45:23;;;;;;;15.20;8.30;;;;;;;;;;5022265;28;20063;-75
2021/12/03 18:53:14;;;;;;;17.37;8.97;;;;;;;;;;5027585;28;20794;-74
2021/12/03 18:55:46;;;;;;;17.73;9.70;;;;;;;;;;5028197;28;20032;-75
2021/12/03 18:58:11;;;;;;;16.73;9.55;;;;;;;;;;5027925;28;20057;-74
2021/12/03 19:00:41;;;;;;;15.27;9.60;;;;;;;;;;5025134;28;20074;-75
2021/12/03 19:03:17;;;;;;;15.30;9.30;;;;;;;;;;5023043;28;20036;-75
2021/12/03 19:13:40;;;;;;;17.83;8.93;;;;;;;;;;5025780;28;20036;-76
2021/12/03 19:16:09;;;;;;;17.17;9.43;;;;;;;;;;5028045;28;20037;-77
2021/12/03 19:18:35;;;;;;;16.65;9.15;;;;;;;;;;5027237;28;20219;-76
2021/12/03 19:21:06;;;;;;;16.33;9.45;;;;;;;;;;5029486;28;20057;-75
2021/12/03 19:23:31;;;;;;;18.73;10.40;;;;;;;;;;5021039;28;20474;-73
2021/12/03 19:25:56;;;;;;;19.58;9.82;;;;;;;;;;5028653;28;20060;-75
2021/12/03 19:28:21;;;;;;;15.83;9.30;;;;;;;;;;5027807;28;20021;-77
2021/12/03 19:30:47;;;;;;;17.60;9.87;;;;;;;;;;5023765;28;20064;-79
2021/12/03 19:33:12;;;;;;;16.07;8.87;;;;;;;;;;5026338;28;20049;-77
2021/12/03 19:35:39;;;;;;;16.55;9.25;;;;;;;;;;5027985;28;20087;-79
2021/12/03 19:38:05;;;;;;;19.70;9.82;;;;;;;;;;5024463;28;20105;-77
2021/12/03 19:40:34;;;;;;;14.25;8.82;;;;;;;;;;5026875;28;20029;-78
2021/12/03 19:43:05;;;;;;;14.32;8.82;;;;;;;;;;5032104;28;20509;-79
2021/12/03 19:45:34;;;;;;;15.40;8.57;;;;;;;;;;5039821;28;20044;-81
2021/12/03 19:48:03;;;;;;;15.20;8.52;;;;;;;;;;5023700;28;20481;-77
2021/12/03 19:53:00;;;;;;;14.25;8.50;;;;;;;;;;5033763;28;20483;-74
2021/12/03 19:55:26;;;;;;;18.40;9.25;;;;;;;;;;5027942;28;20033;-72
2021/12/03 19:57:51;;;;;;;14.53;8.57;;;;;;;;;;5030107;28;20068;-73
2021/12/03 20:00:16;;;;;;;18.77;11.05;;;;;;;;;;5031030;28;20033;-71
2021/12/03 20:02:42;;;;;;;17.13;9.30;;;;;;;;;;5030139;28;20104;-72
2021/12/03 20:05:07;;;;;;;13.77;8.10;;;;;;;;;;5023949;28;20026;-73
2021/12/03 20:07:33;;;;;;;13.77;8.05;;;;;;;;;;5030261;28;20042;-72
2021/12/03 20:12:24;;;;;;;12.02;7.45;;;;;;;;;;5030205;28;20074;-73
2021/12/03 20:14:50;;;;;;;15.25;9.55;;;;;;;;;;5020909;28;20034;-71
2021/12/03 20:19:55;;;;;;;18.03;11.03;;;;;;;;;;5023196;28;20107;-73
2021/12/03 20:22:28;;;;;;;20.13;11.98;;;;;;;;;;5028765;28;20152;-72
2021/12/03 20:27:45;;;;;;;18.95;11.55;;;;;;;;;;5025441;28;20032;-73
2021/12/03 20:30:23;;;;;;;14.83;9.03;;;;;;;;;;5027134;28;20032;-72
2021/12/03 20:38:18;;;;;;;11.10;7.20;;;;;;;;;;5029104;28;20072;-71
2021/12/03 20:40:49;;;;;;;11.80;7.13;;;;;;;;;;5030608;28;20057;-70
2021/12/03 20:48:41;;;;;;;11.52;6.82;;;;;;;;;;5028844;28;20622;-73
2021/12/03 20:53:35;;;;;;;10.90;6.67;;;;;;;;;;5024344;28;20437;-71
2021/12/03 21:09:44;;;;;;;13.40;6.73;;;;;;;;;;5026249;28;20499;-76
2021/12/03 21:12:22;;;;;;;10.73;6.43;;;;;;;;;;5026035;28;20025;-73
2021/12/03 21:17:45;;;;;;;12.27;6.30;;;;;;;;;;5019737;28;20399;-71
2021/12/03 21:23:19;;;;;;;11.93;6.57;;;;;;;;;;5014765;28;20022;-72
2021/12/03 21:25:49;;;;;;;10.00;6.00;;;;;;;;;;5027114;28;20021;-73
2021/12/03 21:30:48;;;;;;;10.90;5.30;;;;;;;;;;5026059;28;20033;-72
2021/12/03 21:39:03;;;;;;;8.43;4.30;;;;;;;;;;5026818;28;20032;-73
2021/12/03 21:41:29;;;;;;;9.00;5.50;;;;;;;;;;5021067;28;20191;-73
2021/12/03 21:44:00;;;;;;;6.97;4.50;;;;;;;;;;5026423;28;20033;-73
2021/12/03 21:46:26;;;;;;;11.27;5.00;;;;;;;;;;5026042;28;20033;-75
2021/12/03 21:48:52;;;;;;;9.47;5.30;;;;;;;;;;5023607;28;20044;-75
2021/12/03 21:51:18;;;;;;;10.17;5.43;;;;;;;;;;5029002;28;20029;-74
2021/12/03 21:53:43;;;;;;;9.77;5.37;;;;;;;;;;5025597;28;20444;-72
2021/12/03 21:56:08;;;;;;;10.57;5.53;;;;;;;;;;5028011;28;20651;-70
2021/12/03 21:58:33;;;;;;;8.83;4.77;;;;;;;;;;5026709;28;20026;-73
2021/12/03 22:00:59;;;;;;;11.20;6.03;;;;;;;;;;5023097;28;20029;-75
2021/12/03 22:03:24;;;;;;;10.30;6.13;;;;;;;;;;5028074;28;20034;-71
2021/12/03 22:05:51;;;;;;;10.60;5.73;;;;;;;;;;5029214;28;20385;-70
2021/12/03 22:08:16;;;;;;;9.93;6.13;;;;;;;;;;5025497;28;20148;-72
2021/12/03 22:10:42;;;;;;;9.37;5.10;;;;;;;;;;5022057;28;20034;-72
2021/12/03 22:13:08;;;;;;;10.77;5.23;;;;;;;;;;5027369;28;20025;-76
2021/12/03 22:15:34;;;;;;;8.23;4.70;;;;;;;;;;5027130;28;20033;-74
2021/12/03 22:17:59;;;;;;;7.03;4.40;;;;;;;;;;5028710;28;20116;-72
2021/12/03 22:20:24;;;;;;;6.70;4.23;;;;;;;;;;5028775;28;20041;-70
2021/12/03 22:22:49;;;;;;;6.67;3.80;;;;;;;;;;5028172;28;20022;-75
2021/12/03 22:25:16;;;;;;;6.73;3.93;;;;;;;;;;5022613;28;20040;-83
2021/12/03 22:27:41;;;;;;;7.27;3.77;;;;;;;;;;5021986;28;20060;-72
2021/12/03 22:30:06;;;;;;;7.23;4.00;;;;;;;;;;5026557;28;20466;-74
2021/12/03 22:32:32;;;;;;;7.67;3.90;;;;;;;;;;5028784;28;20032;-73
2021/12/03 22:34:57;;;;;;;6.73;3.67;;;;;;;;;;5025609;28;20029;-72
2021/12/03 22:37:22;;;;;;;6.07;3.40;;;;;;;;;;5031138;28;20116;-73
2021/12/03 22:39:47;;;;;;;6.63;3.33;;;;;;;;;;5022090;28;20439;-75
2021/12/03 22:42:12;;;;;;;6.80;3.90;;;;;;;;;;5020477;28;20026;-75
2021/12/03 22:44:38;;;;;;;6.95;3.72;;;;;;;;;;5023434;28;20032;-77
2021/12/03 22:47:21;;;;;;;5.80;3.53;;;;;;;;;;5016928;28;20026;-78
2021/12/03 22:52:15;;;;;;;7.97;5.07;;;;;;;;;;5030174;28;20145;-76
2021/12/03 22:54:42;;;;;;;9.77;5.77;;;;;;;;;;5028308;28;20100;-73
2021/12/03 22:57:10;;;;;;;5.90;3.63;;;;;;;;;;5024568;28;20022;-75
2021/12/03 22:59:36;;;;;;;6.37;3.70;;;;;;;;;;5028409;28;20041;-76
2021/12/03 23:02:02;;;;;;;5.80;2.90;;;;;;;;;;5020864;28;20025;-74
2021/12/03 23:04:28;;;;;;;5.00;3.00;;;;;;;;;;5027496;28;20492;-73
2021/12/03 23:06:53;;;;;;;4.63;2.80;;;;;;;;;;5025098;28;20053;-73